createdAt,value
2022-12-03T00:00:52.022Z,102972.52
2022-12-03T00:01:57.241Z,102968.16
2022-12-03T00:02:58.902Z,102965.77
2022-12-03T00:04:00.771Z,102969.33
2022-12-03T00:05:02.481Z,102967.77
2022-12-03T00:06:04.260Z,102964.86
2022-12-03T00:07:08.082Z,102965.13
2022-12-03T00:08:09.639Z,102965.58
2022-12-03T00:09:11.253Z,102965.22
2022-12-03T00:10:13.013Z,102963.21
2022-12-03T00:11:14.530Z,102967.73
2022-12-03T00:12:16.131Z,102967.77
2022-12-03T00:13:17.699Z,102962.84
2022-12-03T00:14:19.292Z,102967.14
2022-12-03T00:15:20.887Z,102962.30
2022-12-03T00:16:22.477Z,102964.23
2022-12-03T00:17:24.253Z,102960.83
2022-12-03T00:18:25.824Z,102956.45
2022-12-03T00:19:27.597Z,102958.30
2022-12-03T00:20:29.113Z,102959.55
2022-12-03T00:21:30.664Z,102957.55
2022-12-03T00:22:32.407Z,102958.84
2022-12-03T00:23:38.517Z,102957.91
2022-12-03T00:24:43.274Z,102959.50
2022-12-03T00:25:44.826Z,102953.48
2022-12-03T00:26:46.402Z,102956.58
2022-12-03T00:27:48.114Z,102956.84
2022-12-03T00:28:49.665Z,102955.69
2022-12-03T00:29:51.301Z,102954.69
2022-12-03T00:30:53.572Z,102959.51
2022-12-03T00:31:55.168Z,102958.11
2022-12-03T00:32:56.870Z,102960.88
2022-12-03T00:33:58.434Z,102961.34
2022-12-03T00:35:00.110Z,102960.38
2022-12-03T00:36:01.606Z,102961.80
2022-12-03T00:37:03.099Z,102958.98
2022-12-03T00:38:04.749Z,102962.02
2022-12-03T00:39:06.302Z,102963.02
2022-12-03T00:40:08.952Z,102966.73
2022-12-03T00:41:10.529Z,102966.92
2022-12-03T00:42:12.193Z,102969.08
2022-12-03T00:43:13.895Z,102968.70
2022-12-03T00:44:15.567Z,102967.38
2022-12-03T00:45:17.307Z,102970.13
2022-12-03T00:46:21.601Z,102969.24
2022-12-03T00:47:23.505Z,102965.22
2022-12-03T00:48:25.409Z,102971.48
2022-12-03T00:49:26.974Z,102969.77
2022-12-03T00:50:28.765Z,102966.20
2022-12-03T00:51:30.338Z,102969.11
2022-12-03T00:52:31.867Z,102971.00
2022-12-03T00:53:34.970Z,102968.32
2022-12-03T00:54:36.501Z,102971.14
2022-12-03T00:55:38.152Z,102970.55
2022-12-03T00:56:39.745Z,102970.13
2022-12-03T00:57:41.567Z,102967.30
2022-12-03T00:58:43.297Z,102966.05
2022-12-03T00:59:44.854Z,102963.13
2022-12-03T01:00:46.578Z,102963.44
2022-12-03T01:01:48.234Z,102964.73
2022-12-03T01:02:52.964Z,102966.00
2022-12-03T01:03:54.776Z,102966.72
2022-12-03T01:04:56.903Z,102967.36
2022-12-03T01:05:58.854Z,102965.20
2022-12-03T01:07:00.349Z,102968.10
2022-12-03T01:08:02.064Z,102964.80
2022-12-03T01:09:03.975Z,102967.85
2022-12-03T01:10:06.287Z,102969.24
2022-12-03T01:11:28.159Z,102966.95
2022-12-03T01:12:29.702Z,102972.02
2022-12-03T01:13:31.388Z,102970.33
2022-12-03T01:14:33.097Z,102968.52
2022-12-03T01:15:34.722Z,102969.86
2022-12-03T01:16:37.363Z,102970.84
2022-12-03T01:17:39.312Z,102969.33
2022-12-03T01:18:40.887Z,102968.85
2022-12-03T01:19:48.096Z,102967.13
2022-12-03T01:20:50.100Z,102966.95
2022-12-03T01:21:52.077Z,102968.23
2022-12-03T01:22:53.684Z,102966.67
2022-12-03T01:23:55.771Z,102966.32
2022-12-03T01:24:57.766Z,102965.41
2022-12-03T01:25:59.326Z,102965.28
2022-12-03T01:27:00.958Z,102964.94
2022-12-03T01:28:02.638Z,102964.27
2022-12-03T01:29:05.214Z,102966.11
2022-12-03T01:30:07.990Z,102967.02
2022-12-03T01:31:28.406Z,102966.01
2022-12-03T01:32:30.245Z,102963.54
2022-12-03T01:33:31.857Z,102964.06
2022-12-03T01:34:33.694Z,102963.66
2022-12-03T01:35:35.506Z,102963.13
2022-12-03T01:36:37.022Z,102964.73
2022-12-03T01:37:38.706Z,102961.77
2022-12-03T01:38:40.296Z,102960.81
2022-12-03T01:39:42.369Z,102961.23
2022-12-03T01:40:44.062Z,102958.39
2022-12-03T01:41:47.222Z,102955.00
2022-12-03T01:42:49.529Z,102954.73
2022-12-03T01:43:52.814Z,102956.30
2022-12-03T01:44:58.068Z,102951.64
2022-12-03T01:46:01.125Z,102950.02
2022-12-03T01:47:05.608Z,102949.20
2022-12-03T01:48:09.629Z,102947.84
2022-12-03T01:49:21.512Z,102946.65
2022-12-03T01:50:30.857Z,102947.04
2022-12-03T01:51:32.761Z,102948.08
2022-12-03T01:52:37.902Z,102945.69
2022-12-03T01:53:39.480Z,102942.20
2022-12-03T01:54:45.858Z,102942.13
2022-12-03T01:55:48.954Z,102938.95
2022-12-03T01:56:51.198Z,102941.95
2022-12-03T01:57:56.672Z,102940.33
2022-12-03T01:58:58.519Z,102944.60
2022-12-03T02:00:00.549Z,102939.72
2022-12-03T02:01:09.547Z,102941.66
2022-12-03T02:02:14.030Z,102943.78
2022-12-03T02:03:20.422Z,102940.67
2022-12-03T02:04:22.761Z,102942.79
2022-12-03T02:05:27.572Z,102941.95
2022-12-03T02:06:29.632Z,102943.83
2022-12-03T02:07:33.438Z,102943.81
2022-12-03T02:08:38.447Z,102946.91
2022-12-03T02:09:40.328Z,102944.77
2022-12-03T02:10:41.895Z,102941.89
2022-12-03T02:11:47.835Z,102942.02
2022-12-03T02:12:55.541Z,102941.55
2022-12-03T02:14:02.394Z,102941.96
2022-12-03T02:15:06.469Z,102941.83
2022-12-03T02:16:08.240Z,102940.41
2022-12-03T02:17:10.697Z,102935.92
2022-12-03T02:18:12.495Z,102937.21
2022-12-03T02:19:26.449Z,102937.91
2022-12-03T02:20:30.634Z,102934.86
2022-12-03T02:21:50.331Z,102936.09
2022-12-03T02:22:56.743Z,102933.95
2022-12-03T02:24:16.056Z,102934.18
2022-12-03T02:25:22.496Z,102934.35
2022-12-03T02:26:24.338Z,102934.80
2022-12-03T02:27:27.790Z,102936.09
2022-12-03T02:28:29.423Z,102935.67
2022-12-03T02:29:31.159Z,102935.30
2022-12-03T02:31:27.049Z,102938.63
2022-12-03T02:32:28.703Z,102936.63
2022-12-03T02:33:31.407Z,102939.67
2022-12-03T02:34:35.824Z,102938.55
2022-12-03T02:35:38.334Z,102936.02
2022-12-03T02:36:39.959Z,102936.11
2022-12-03T02:37:43.018Z,102936.20
2022-12-03T02:38:46.221Z,102936.69
2022-12-03T02:39:51.533Z,102933.88
2022-12-03T02:40:56.076Z,102932.57
2022-12-03T02:42:16.301Z,102930.70
2022-12-03T02:43:19.870Z,102934.23
2022-12-03T02:44:21.618Z,102930.34
2022-12-03T02:45:24.798Z,102932.55
2022-12-03T02:46:26.629Z,102930.95
2022-12-03T02:47:32.545Z,102930.28
2022-12-03T02:48:38.219Z,102928.77
2022-12-03T02:49:40.551Z,102927.96
2022-12-03T02:50:48.162Z,102930.23
2022-12-03T02:51:49.710Z,102930.73
2022-12-03T02:52:53.471Z,102926.58
2022-12-03T02:53:56.186Z,102928.55
2022-12-03T02:54:58.911Z,102926.16
2022-12-03T02:56:02.115Z,102928.70
2022-12-03T02:57:04.160Z,102926.39
2022-12-03T02:58:06.232Z,102930.85
2022-12-03T02:59:08.012Z,102928.16
2022-12-03T03:00:11.082Z,102929.19
2022-12-03T03:01:14.723Z,102929.83
2022-12-03T03:02:16.756Z,102932.02
2022-12-03T03:03:20.242Z,102929.25
2022-12-03T03:04:24.181Z,102936.34
2022-12-03T03:05:26.324Z,102933.39
2022-12-03T03:06:28.210Z,102932.98
2022-12-03T03:07:29.919Z,102933.61
2022-12-03T03:08:31.794Z,102930.45
2022-12-03T03:09:34.474Z,102931.14
2022-12-03T03:10:38.365Z,102930.08
2022-12-03T03:11:39.983Z,102929.85
2022-12-03T03:12:41.943Z,102927.67
2022-12-03T03:13:44.465Z,102926.14
2022-12-03T03:14:46.351Z,102926.63
2022-12-03T03:15:48.361Z,102923.64
2022-12-03T03:16:55.459Z,102926.59
2022-12-03T03:17:57.150Z,102923.58
2022-12-03T03:18:58.677Z,102928.23
2022-12-03T03:20:00.786Z,102928.04
2022-12-03T03:21:03.491Z,102928.23
2022-12-03T03:22:05.146Z,102924.99
2022-12-03T03:23:17.248Z,102924.21
2022-12-03T03:24:20.482Z,102925.63
2022-12-03T03:25:24.161Z,102924.59
2022-12-03T03:26:27.229Z,102925.50
2022-12-03T03:27:29.235Z,102927.98
2022-12-03T03:28:33.939Z,102926.02
2022-12-03T03:29:35.865Z,102924.06
2022-12-03T03:30:38.810Z,102921.83
2022-12-03T03:31:43.347Z,102920.29
2022-12-03T03:32:44.930Z,102921.89
2022-12-03T03:33:48.501Z,102917.64
2022-12-03T03:34:50.184Z,102919.73
2022-12-03T03:35:52.727Z,102921.25
2022-12-03T03:36:54.366Z,102923.48
2022-12-03T03:37:57.977Z,102921.70
2022-12-03T03:38:59.753Z,102920.02
2022-12-03T03:40:01.716Z,102919.87
2022-12-03T03:41:05.544Z,102920.36
2022-12-03T03:42:08.805Z,102917.55
2022-12-03T03:43:12.071Z,102915.71
2022-12-03T03:44:13.727Z,102910.34
2022-12-03T03:45:17.381Z,102911.02
2022-12-03T03:46:19.775Z,102912.02
2022-12-03T03:47:23.111Z,102907.55
2022-12-03T03:48:24.710Z,102907.19
2022-12-03T03:49:26.793Z,102905.83
2022-12-03T03:50:30.136Z,102905.85
2022-12-03T03:51:34.373Z,102902.50
2022-12-03T03:52:37.568Z,102904.52
2022-12-03T03:53:42.150Z,102903.20
2022-12-03T03:54:44.079Z,102901.64
2022-12-03T03:55:46.039Z,102904.23
2022-12-03T03:56:48.120Z,102900.77
2022-12-03T03:57:50.157Z,102903.07
2022-12-03T03:58:52.129Z,102900.05
2022-12-03T03:59:53.730Z,102897.77
2022-12-03T04:00:55.459Z,102898.52
2022-12-03T04:01:57.262Z,102897.83
2022-12-03T04:02:58.828Z,102898.67
2022-12-03T04:04:00.695Z,102898.98
2022-12-03T04:05:02.920Z,102896.97
2022-12-03T04:06:04.765Z,102897.23
2022-12-03T04:07:06.483Z,102893.68
2022-12-03T04:08:08.122Z,102891.15
2022-12-03T04:09:09.728Z,102895.59
2022-12-03T04:10:30.729Z,102893.64
2022-12-03T04:11:50.975Z,102893.47
2022-12-03T04:12:55.061Z,102895.42
2022-12-03T04:13:56.775Z,102893.44
2022-12-03T04:14:58.453Z,102892.67
2022-12-03T04:16:00.148Z,102890.14
2022-12-03T04:17:01.711Z,102892.30
2022-12-03T04:18:22.552Z,102892.84
2022-12-03T04:19:24.077Z,102889.33
2022-12-03T04:20:25.603Z,102888.89
2022-12-03T04:21:45.609Z,102889.27
2022-12-03T04:22:47.128Z,102885.88
2022-12-03T04:23:48.686Z,102886.83
2022-12-03T04:24:50.459Z,102885.50
2022-12-03T04:26:10.841Z,102882.44
2022-12-03T04:27:30.942Z,102882.23
2022-12-03T04:28:50.829Z,102882.14
2022-12-03T04:29:52.572Z,102884.43
2022-12-03T04:30:54.279Z,102882.76
2022-12-03T04:32:14.477Z,102881.20
2022-12-03T04:33:34.783Z,102881.19
2022-12-03T04:34:55.364Z,102877.90
2022-12-03T04:35:57.330Z,102878.48
2022-12-03T04:36:58.856Z,102876.38
2022-12-03T04:38:01.831Z,102877.84
2022-12-03T04:39:03.786Z,102876.35
2022-12-03T04:40:26.207Z,102879.78
2022-12-03T04:41:27.987Z,102881.02
2022-12-03T04:42:29.554Z,102879.97
2022-12-03T04:43:33.745Z,102876.23
2022-12-03T04:44:35.652Z,102877.13
2022-12-03T04:45:37.310Z,102878.50
2022-12-03T04:46:39.258Z,102879.34
2022-12-03T04:47:40.715Z,102875.48
2022-12-03T04:48:42.208Z,102875.71
2022-12-03T04:49:47.170Z,102874.06
2022-12-03T04:50:48.761Z,102875.59
2022-12-03T04:51:50.399Z,102871.12
2022-12-03T04:52:51.926Z,102875.58
2022-12-03T04:53:53.424Z,102877.84
2022-12-03T04:54:55.342Z,102875.56
2022-12-03T04:55:57.182Z,102874.79
2022-12-03T04:56:59.631Z,102876.14
2022-12-03T04:58:01.204Z,102875.17
2022-12-03T04:59:03.436Z,102878.31
2022-12-03T05:00:05.711Z,102875.96
2022-12-03T05:01:07.445Z,102875.45
2022-12-03T05:02:09.454Z,102874.98
2022-12-03T05:03:11.270Z,102876.59
2022-12-03T05:04:14.191Z,102869.62
2022-12-03T05:05:15.955Z,102868.84
2022-12-03T05:06:17.486Z,102872.52
2022-12-03T05:07:19.282Z,102870.94
2022-12-03T05:08:20.782Z,102874.84
2022-12-03T05:09:22.506Z,102873.92
2022-12-03T05:10:24.067Z,102878.39
2022-12-03T05:11:25.618Z,102876.36
2022-12-03T05:12:27.228Z,102875.22
2022-12-03T05:13:28.718Z,102875.50
2022-12-03T05:14:30.325Z,102876.08
2022-12-03T05:15:31.845Z,102873.98
2022-12-03T05:16:33.461Z,102872.29
2022-12-03T05:17:35.156Z,102875.95
2022-12-03T05:18:37.007Z,102876.20
2022-12-03T05:19:57.071Z,102876.58
2022-12-03T05:20:58.671Z,102873.61
2022-12-03T05:22:00.256Z,102873.55
2022-12-03T05:23:02.081Z,102872.48
2022-12-03T05:24:04.208Z,102874.44
2022-12-03T05:25:06.842Z,102872.41
2022-12-03T05:26:08.371Z,102869.96
2022-12-03T05:27:10.039Z,102871.43
2022-12-03T05:28:11.671Z,102865.76
2022-12-03T05:29:13.167Z,102868.96
2022-12-03T05:30:14.866Z,102865.77
2022-12-03T05:31:16.687Z,102867.16
2022-12-03T05:32:19.110Z,102865.21
2022-12-03T05:33:20.836Z,102863.27
2022-12-03T05:34:22.323Z,102863.09
2022-12-03T05:35:24.354Z,102863.16
2022-12-03T05:36:26.818Z,102864.39
2022-12-03T05:37:28.560Z,102863.56
2022-12-03T05:38:30.317Z,102864.80
2022-12-03T05:39:31.833Z,102864.88
2022-12-03T05:40:33.389Z,102864.73
2022-12-03T05:41:53.253Z,102867.58
2022-12-03T05:42:56.376Z,102865.39
2022-12-03T05:43:58.201Z,102866.56
2022-12-03T05:44:59.724Z,102863.38
2022-12-03T05:46:01.287Z,102861.16
2022-12-03T05:47:04.659Z,102861.03
2022-12-03T05:48:09.886Z,102858.30
2022-12-03T05:49:11.703Z,102860.77
2022-12-03T05:50:13.656Z,102858.89
2022-12-03T05:51:15.247Z,102855.68
2022-12-03T05:52:16.742Z,102857.98
2022-12-03T05:53:18.307Z,102857.73
2022-12-03T05:54:19.993Z,102858.80
2022-12-03T05:55:21.709Z,102858.19
2022-12-03T05:56:23.341Z,102858.45
2022-12-03T05:57:24.885Z,102859.75
2022-12-03T05:58:26.465Z,102863.75
2022-12-03T05:59:28.154Z,102859.85
2022-12-03T06:00:36.425Z,102862.65
2022-12-03T06:01:40.609Z,102863.86
2022-12-03T06:02:42.704Z,102865.27
2022-12-03T06:03:44.654Z,102868.21
2022-12-03T06:04:46.423Z,102868.33
2022-12-03T06:05:47.992Z,102865.27
2022-12-03T06:06:49.557Z,102865.70
2022-12-03T06:07:52.391Z,102866.14
2022-12-03T06:08:54.286Z,102865.52
2022-12-03T06:09:56.109Z,102866.14
2022-12-03T06:10:57.627Z,102865.81
2022-12-03T06:12:00.473Z,102863.35
2022-12-03T06:13:02.659Z,102862.48
2022-12-03T06:14:04.247Z,102862.41
2022-12-03T06:15:06.746Z,102863.65
2022-12-03T06:16:08.341Z,102865.36
2022-12-03T06:17:09.905Z,102863.05
2022-12-03T06:18:11.538Z,102865.38
2022-12-03T06:19:13.190Z,102862.56
2022-12-03T06:20:18.244Z,102862.83
2022-12-03T06:21:20.180Z,102863.07
2022-12-03T06:22:21.725Z,102863.52
2022-12-03T06:23:23.330Z,102864.52
2022-12-03T06:24:25.243Z,102863.96
2022-12-03T06:25:27.024Z,102865.11
2022-12-03T06:26:29.603Z,102864.27
2022-12-03T06:27:31.226Z,102867.96
2022-12-03T06:28:32.942Z,102865.73
2022-12-03T06:29:34.568Z,102866.13
2022-12-03T06:30:36.311Z,102868.88
2022-12-03T06:31:37.993Z,102870.92
2022-12-03T06:32:39.717Z,102870.77
2022-12-03T06:33:41.301Z,102869.62
2022-12-03T06:34:42.935Z,102870.15
2022-12-03T06:35:44.717Z,102870.35
2022-12-03T06:36:46.386Z,102867.95
2022-12-03T06:37:47.894Z,102870.61
2022-12-03T06:38:49.419Z,102870.38
2022-12-03T06:39:51.041Z,102867.16
2022-12-03T06:40:52.777Z,102869.52
2022-12-03T06:41:54.475Z,102869.56
2022-12-03T06:42:56.200Z,102871.36
2022-12-03T06:43:57.740Z,102872.47
2022-12-03T06:44:59.370Z,102873.08
2022-12-03T06:46:01.032Z,102874.06
2022-12-03T06:47:02.726Z,102868.95
2022-12-03T06:48:04.745Z,102871.09
2022-12-03T06:49:08.505Z,102871.58
2022-12-03T06:50:10.527Z,102867.91
2022-12-03T06:51:12.108Z,102873.36
2022-12-03T06:52:13.725Z,102872.20
2022-12-03T06:53:15.255Z,102872.73
2022-12-03T06:54:16.808Z,102874.13
2022-12-03T06:55:18.437Z,102874.64
2022-12-03T06:56:22.302Z,102874.77
2022-12-03T06:57:24.069Z,102874.70
2022-12-03T06:58:25.646Z,102874.98
2022-12-03T06:59:27.426Z,102873.48
2022-12-03T07:00:29.076Z,102873.96
2022-12-03T07:01:30.782Z,102874.05
2022-12-03T07:02:32.437Z,102870.96
2022-12-03T07:03:34.064Z,102871.48
2022-12-03T07:04:35.605Z,102871.96
2022-12-03T07:05:37.162Z,102871.36
2022-12-03T07:06:38.904Z,102870.67
2022-12-03T07:07:40.524Z,102873.23
2022-12-03T07:08:42.165Z,102874.61
2022-12-03T07:09:43.778Z,102874.10
2022-12-03T07:10:45.351Z,102869.81
2022-12-03T07:11:47.010Z,102871.58
2022-12-03T07:12:48.556Z,102871.98
2022-12-03T07:13:50.112Z,102870.69
2022-12-03T07:14:52.152Z,102871.92
2022-12-03T07:15:54.103Z,102869.89
2022-12-03T07:16:55.771Z,102872.06
2022-12-03T07:17:57.469Z,102871.52
2022-12-03T07:18:59.019Z,102869.79
2022-12-03T07:20:00.630Z,102869.13
2022-12-03T07:21:02.280Z,102865.30
2022-12-03T07:22:03.977Z,102867.66
2022-12-03T07:23:06.037Z,102864.79
2022-12-03T07:24:07.698Z,102865.32
2022-12-03T07:25:10.254Z,102864.66
2022-12-03T07:26:11.894Z,102861.61
2022-12-03T07:27:13.492Z,102863.24
2022-12-03T07:28:15.047Z,102867.27
2022-12-03T07:29:16.540Z,102864.30
2022-12-03T07:30:18.556Z,102863.21
2022-12-03T07:31:20.299Z,102866.19
2022-12-03T07:32:22.221Z,102869.45
2022-12-03T07:33:23.877Z,102865.20
2022-12-03T07:34:25.472Z,102866.33
2022-12-03T07:35:27.124Z,102863.30
2022-12-03T07:36:28.742Z,102865.05
2022-12-03T07:37:30.328Z,102865.83
2022-12-03T07:38:31.839Z,102864.50
2022-12-03T07:39:33.478Z,102862.11
2022-12-03T07:40:36.472Z,102861.90
2022-12-03T07:41:38.044Z,102857.48
2022-12-03T07:42:39.771Z,102859.67
2022-12-03T07:43:41.403Z,102859.96
2022-12-03T07:44:43.057Z,102859.72
2022-12-03T07:45:44.674Z,102853.63
2022-12-03T07:46:46.435Z,102858.98
2022-12-03T07:47:48.139Z,102856.99
2022-12-03T07:48:49.725Z,102855.10
2022-12-03T07:49:51.296Z,102858.62
2022-12-03T07:50:52.885Z,102855.55
2022-12-03T07:51:56.346Z,102856.23
2022-12-03T07:52:58.109Z,102851.58
2022-12-03T07:53:59.777Z,102853.80
2022-12-03T07:55:01.378Z,102854.39
2022-12-03T07:56:04.145Z,102854.52
2022-12-03T07:57:06.478Z,102857.34
2022-12-03T07:58:08.662Z,102853.70
2022-12-03T07:59:10.181Z,102855.09
2022-12-03T08:00:12.609Z,102854.77
2022-12-03T08:01:14.318Z,102856.80
2022-12-03T08:02:21.245Z,102856.70
2022-12-03T08:03:24.935Z,102859.08
2022-12-03T08:04:26.554Z,102860.37
2022-12-03T08:05:28.967Z,102858.39
2022-12-03T08:06:30.616Z,102858.50
2022-12-03T08:08:32.058Z,102858.09
2022-12-03T08:09:33.693Z,102856.95
2022-12-03T08:10:35.455Z,102857.33
2022-12-03T08:11:37.087Z,102858.77
2022-12-03T08:12:41.929Z,102855.09
2022-12-03T08:13:43.675Z,102857.19
2022-12-03T08:14:45.409Z,102857.77
2022-12-03T08:15:46.971Z,102857.68
2022-12-03T08:16:48.648Z,102858.43
2022-12-03T08:17:54.709Z,102858.57
2022-12-03T08:18:56.899Z,102860.56
2022-12-03T08:19:58.614Z,102859.43
2022-12-03T08:21:00.241Z,102861.42
2022-12-03T08:22:10.733Z,102860.71
2022-12-03T08:23:16.664Z,102862.35
2022-12-03T08:24:20.509Z,102861.20
2022-12-03T08:25:25.099Z,102857.61
2022-12-03T08:26:27.913Z,102858.86
2022-12-03T08:27:29.474Z,102860.44
2022-12-03T08:28:31.218Z,102858.50
2022-12-03T08:29:32.810Z,102859.72
2022-12-03T08:30:34.486Z,102855.63
2022-12-03T08:31:36.668Z,102858.13
2022-12-03T08:32:38.262Z,102854.80
2022-12-03T08:33:41.125Z,102854.41
2022-12-03T08:34:44.201Z,102849.22
2022-12-03T08:35:50.220Z,102851.58
2022-12-03T08:37:05.368Z,102848.58
2022-12-03T08:38:12.061Z,102847.27
2022-12-03T08:39:40.782Z,102846.86
2022-12-03T08:40:45.047Z,102848.00
2022-12-03T08:42:13.923Z,102848.91
2022-12-03T08:43:24.105Z,102847.06
2022-12-03T08:44:29.034Z,102846.14
2022-12-03T08:45:38.715Z,102847.52
2022-12-03T08:46:40.582Z,102847.59
2022-12-03T08:47:42.423Z,102848.15
2022-12-03T08:48:48.712Z,102845.40
2022-12-03T08:49:59.192Z,102845.14
2022-12-03T08:51:08.394Z,102849.66
2022-12-03T08:52:15.676Z,102844.84
2022-12-03T08:53:35.648Z,102843.14
2022-12-03T08:54:37.204Z,102842.19
2022-12-03T08:55:44.768Z,102843.27
2022-12-03T08:56:46.728Z,102842.65
2022-12-03T08:57:48.383Z,102842.76
2022-12-03T08:58:57.036Z,102841.50
2022-12-03T09:00:10.926Z,102842.80
2022-12-03T09:01:12.470Z,102838.69
2022-12-03T09:02:22.304Z,102842.34
2022-12-03T09:03:24.372Z,102842.66
2022-12-03T09:04:44.483Z,102841.46
2022-12-03T09:05:46.333Z,102840.23
2022-12-03T09:06:48.172Z,102838.52
2022-12-03T09:07:49.827Z,102842.34
2022-12-03T09:08:51.451Z,102838.39
2022-12-03T09:09:53.204Z,102840.27
2022-12-03T09:10:54.819Z,102838.75
2022-12-03T09:11:56.457Z,102837.02
2022-12-03T09:12:57.992Z,102839.11
2022-12-03T09:13:59.601Z,102838.95
2022-12-03T09:15:01.265Z,102839.79
2022-12-03T09:16:02.879Z,102838.55
2022-12-03T09:17:04.816Z,102837.06
2022-12-03T09:18:06.478Z,102837.60
2022-12-03T09:19:08.140Z,102838.25
2022-12-03T09:20:10.335Z,102836.61
2022-12-03T09:21:11.873Z,102837.27
2022-12-03T09:22:14.518Z,102838.20
2022-12-03T09:23:16.678Z,102836.59
2022-12-03T09:24:18.863Z,102833.09
2022-12-03T09:25:20.606Z,102832.45
2022-12-03T09:26:22.253Z,102834.67
2022-12-03T09:27:25.197Z,102835.77
2022-12-03T09:28:26.729Z,102836.34
2022-12-03T09:29:28.445Z,102833.02
2022-12-03T09:30:30.180Z,102831.50
2022-12-03T09:31:33.548Z,102833.05
2022-12-03T09:32:35.150Z,102832.25
2022-12-03T09:33:37.585Z,102829.27
2022-12-03T09:34:39.312Z,102828.11
2022-12-03T09:35:41.106Z,102827.02
2022-12-03T09:36:42.693Z,102822.90
2022-12-03T09:37:44.425Z,102821.80
2022-12-03T09:38:47.915Z,102819.95
2022-12-03T09:39:50.017Z,102822.17
2022-12-03T09:40:52.148Z,102819.96
2022-12-03T09:41:55.077Z,102825.51
2022-12-03T09:42:57.951Z,102822.84
2022-12-03T09:44:05.312Z,102818.81
2022-12-03T09:45:10.367Z,102820.39
2022-12-03T09:46:12.412Z,102815.94
2022-12-03T09:47:13.928Z,102817.33
2022-12-03T09:48:18.232Z,102821.85
2022-12-03T09:49:19.794Z,102819.05
2022-12-03T09:50:26.031Z,102819.31
2022-12-03T09:51:33.609Z,102817.03
2022-12-03T09:52:35.292Z,102820.66
2022-12-03T09:53:41.321Z,102819.08
2022-12-03T09:54:47.364Z,102816.63
2022-12-03T09:55:49.673Z,102814.08
2022-12-03T09:56:54.307Z,102815.44
2022-12-03T09:57:57.127Z,102812.49
2022-12-03T09:58:59.049Z,102813.80
2022-12-03T10:00:00.594Z,102814.33
2022-12-03T10:01:02.254Z,102815.11
2022-12-03T10:02:18.321Z,102815.63
2022-12-03T10:03:28.165Z,102813.10
2022-12-03T10:04:31.468Z,102809.96
2022-12-03T10:05:34.138Z,102812.81
2022-12-03T10:06:38.773Z,102813.85
2022-12-03T10:07:42.727Z,102813.17
2022-12-03T10:08:47.767Z,102811.95
2022-12-03T10:09:49.430Z,102810.88
2022-12-03T10:10:55.978Z,102808.75
2022-12-03T10:11:59.073Z,102809.63
2022-12-03T10:13:01.826Z,102806.15
2022-12-03T10:14:04.361Z,102808.35
2022-12-03T10:15:08.699Z,102807.17
2022-12-03T10:16:14.559Z,102807.45
2022-12-03T10:17:16.619Z,102803.19
2022-12-03T10:18:24.953Z,102806.02
2022-12-03T10:19:31.943Z,102802.52
2022-12-03T10:20:33.588Z,102800.07
2022-12-03T10:21:37.308Z,102796.72
2022-12-03T10:22:39.371Z,102793.81
2022-12-03T10:23:41.258Z,102791.81
2022-12-03T10:24:44.086Z,102796.31
2022-12-03T10:25:51.201Z,102795.97
2022-12-03T10:26:55.549Z,102795.29
2022-12-03T10:28:03.194Z,102792.03
2022-12-03T10:29:16.866Z,102790.30
2022-12-03T10:30:22.627Z,102790.23
2022-12-03T10:31:35.044Z,102790.14
2022-12-03T10:32:45.543Z,102792.35
2022-12-03T10:33:57.180Z,102791.02
2022-12-03T10:35:16.035Z,102787.55
2022-12-03T10:36:17.518Z,102789.02
2022-12-03T10:37:20.746Z,102786.73
2022-12-03T10:38:22.901Z,102788.99
2022-12-03T10:39:24.948Z,102788.21
2022-12-03T10:40:32.273Z,102788.52
2022-12-03T10:41:34.291Z,102789.59
2022-12-03T10:42:38.505Z,102785.50
2022-12-03T10:43:40.015Z,102784.59
2022-12-03T10:44:41.572Z,102785.31
2022-12-03T10:46:04.953Z,102787.02
2022-12-03T10:47:11.369Z,102790.23
2022-12-03T10:48:24.777Z,102792.21
2022-12-03T10:49:26.436Z,102789.36
2022-12-03T10:50:28.347Z,102789.95
2022-12-03T10:51:30.268Z,102791.80
2022-12-03T10:52:32.823Z,102787.13
2022-12-03T10:53:37.869Z,102785.63
2022-12-03T10:54:39.488Z,102784.40
2022-12-03T10:55:42.999Z,102786.10
2022-12-03T10:56:46.152Z,102784.57
2022-12-03T10:57:48.536Z,102784.65
2022-12-03T10:58:50.473Z,102783.20
2022-12-03T10:59:52.155Z,102783.90
2022-12-03T11:00:55.805Z,102778.19
2022-12-03T11:01:57.660Z,102778.73
2022-12-03T11:02:59.335Z,102780.84
2022-12-03T11:04:04.239Z,102777.95
2022-12-03T11:05:06.282Z,102777.12
2022-12-03T11:06:17.149Z,102777.39
2022-12-03T11:07:21.366Z,102774.64
2022-12-03T11:08:26.163Z,102776.77
2022-12-03T11:09:31.803Z,102774.13
2022-12-03T11:10:33.327Z,102772.63
2022-12-03T11:11:35.050Z,102773.41
2022-12-03T11:12:36.942Z,102775.64
2022-12-03T11:13:38.502Z,102774.65
2022-12-03T11:14:55.940Z,102774.85
2022-12-03T11:15:59.062Z,102772.91
2022-12-03T11:17:00.850Z,102775.99
2022-12-03T11:18:03.181Z,102772.75
2022-12-03T11:19:35.829Z,102771.52
2022-12-03T11:21:02.253Z,102768.31
2022-12-03T11:22:06.550Z,102770.98
2022-12-03T11:23:10.290Z,102767.58
2022-12-03T11:24:19.413Z,102767.86
2022-12-03T11:25:24.598Z,102767.30
2022-12-03T11:26:26.069Z,102768.40
2022-12-03T11:27:27.789Z,102766.39
2022-12-03T11:28:34.990Z,102768.43
2022-12-03T11:29:52.843Z,102764.77
2022-12-03T11:31:01.670Z,102769.35
2022-12-03T11:32:03.301Z,102768.18
2022-12-03T11:33:32.726Z,102763.05
2022-12-03T11:34:34.524Z,102758.81
2022-12-03T11:35:57.341Z,102760.48
2022-12-03T11:37:11.288Z,102762.31
2022-12-03T11:38:52.949Z,102762.95
2022-12-03T11:40:23.652Z,102757.89
2022-12-03T11:41:34.130Z,102759.08
2022-12-03T11:42:40.175Z,102754.89
2022-12-03T11:43:56.925Z,102752.52
2022-12-03T11:45:10.511Z,102753.08
2022-12-03T11:46:12.244Z,102750.67
2022-12-03T11:47:15.631Z,102749.15
2022-12-03T11:48:18.076Z,102747.35
2022-12-03T11:49:36.860Z,102744.50
2022-12-03T11:50:43.152Z,102743.55
2022-12-03T11:51:44.818Z,102740.38
2022-12-03T11:53:08.959Z,102740.83
2022-12-03T11:54:20.816Z,102738.91
2022-12-03T11:55:30.055Z,102739.38
2022-12-03T11:56:31.895Z,102737.36
2022-12-03T11:57:37.261Z,102735.42
2022-12-03T11:58:42.678Z,102733.27
2022-12-03T12:00:04.776Z,102734.46
2022-12-03T12:01:15.076Z,102732.52
2022-12-03T12:02:20.000Z,102733.95
2022-12-03T12:03:31.286Z,102734.31
2022-12-03T12:04:37.236Z,102732.20
2022-12-03T12:05:38.947Z,102731.88
2022-12-03T12:06:42.981Z,102735.58
2022-12-03T12:07:48.049Z,102732.44
2022-12-03T12:08:58.284Z,102732.59
2022-12-03T12:10:00.013Z,102731.89
2022-12-03T12:11:02.328Z,102732.80
2022-12-03T12:12:39.140Z,102731.16